Terminal Aerodrome Forecast
Issued by NWS

Home | Current Version | Previous Version | Text Only | Print | Product List | Glossary On
Versions: 1 2 3 4 5 6 7 8 9 10 11 12 13 14 15 16 17
000
FTUS43 KILX 031832 AAA
TAFCMI
TAF AMD
KCMI 031832Z 0319/0418 20019G27KT P6SM SCT110 SCT250
     FM032300 19015G20KT P6SM SCT120 BKN250
     FM040100 18011KT P6SM SCT120 BKN250
     FM041100 19011KT P6SM VCSH SCT050 BKN100
     FM041600 21013G19KT P6SM SCT060 BKN150=

USA.gov is the U.S. government's official web portal to all federal, state and local government web resources and services.